Home > Products > Valid Products > MTR

000
SAUS43 KAPX 201155
MTRAPN
METAR KAPN 201154Z AUTO 00000KT 10SM CLR M13/M15 A3031 RMK AO2
SLP278 I6000 T11281150 11111 21133 53004





000
SAUS43 KAPX 201055
MTRAPN
METAR KAPN 201054Z AUTO 00000KT 10SM CLR M12/M14 A3030 RMK AO2
SLP276 T11221144





000
SAUS43 KAPX 200955
MTRAPN
METAR KAPN 200954Z AUTO 00000KT 10SM CLR M12/M14 A3030 RMK AO2
SLP274 I1000 T11221139





000
SAUS43 KAPX 200855
MTRAPN
METAR KAPN 200854Z AUTO 00000KT 10SM CLR M12/M13 A3029 RMK AO2
SLP272 I1000 I3000 T11221133 53006





000
SAUS43 KAPX 200755
MTRAPN
METAR KAPN 200754Z AUTO 00000KT 10SM CLR M13/M15 A3028 RMK AO2
SLP268 I1000 T11281150





000
SAUS43 KAPX 200755
MTRAPN
METAR KAPN 200754Z AUTO 00000KT 10SM CLR M13/M15 A3028 RMK AO2
SLP268 I1000 T11281150





000
SAUS43 KAPX 200655
MTRAPN
METAR KAPN 200654Z AUTO 00000KT 10SM CLR M12/M14 A3027 RMK AO2
SLP265 I1000 T11221144





000
SAUS43 KAPX 200555
MTRAPN
METAR KAPN 200554Z AUTO 00000KT 10SM CLR M12/M14 A3028 RMK AO2
SLP266 I1000 I6000 T11171139 11078 21122 58009





000
SAUS43 KAPX 200455
MTRAPN
METAR KAPN 200454Z AUTO 00000KT 10SM CLR M12/M14 A3029 RMK AO2
SLP271 I1000 T11171139 410111117





000
SAUS43 KAPX 200355
MTRAPN
METAR KAPN 200354Z AUTO 00000KT 10SM CLR M11/M13 A3030 RMK AO2
SLP275 I1000 T11111128





000
SAUS43 KAPX 200355
MTRAPN
METAR KAPN 200354Z AUTO 00000KT 10SM CLR M11/M13 A3030 RMK AO2
SLP275 I1000 T11111128





000
SAUS43 KAPX 200255
MTRAPN
METAR KAPN 200254Z AUTO 00000KT 10SM CLR M11/M13 A3030 RMK AO2
SLP276 I1000 I3000 T11061128 50002





000
SAUS43 KAPX 200155
MTRAPN
METAR KAPN 200154Z AUTO 00000KT 10SM CLR M10/M12 A3032 RMK AO2
SLP280 I1000 T11001117





000
SAUS43 KAPX 200155
MTRAPN
METAR KAPN 200154Z AUTO 00000KT 10SM CLR M10/M12 A3032 RMK AO2
SLP280 I1000 T11001117





000
SAUS43 KAPX 200055
MTRAPN
METAR KAPN 200054Z AUTO 00000KT 10SM CLR M09/M11 A3031 RMK AO2
SLP278 T10891106





000
SAUS43 KAPX 192355
MTRAPN
METAR KAPN 192354Z AUTO 00000KT 10SM CLR M08/M09 A3030 RMK AO2
SLP274 T10781094 11011 21078 51013





000
SAUS43 KAPX 192255
MTRAPN
METAR KAPN 192254Z AUTO 02004KT 10SM CLR M07/M08 A3029 RMK AO2
SLP271 T10671083





000
SAUS43 KAPX 192155
MTRAPN
METAR KAPN 192154Z AUTO 01004KT 10SM CLR M06/M08 A3027 RMK AO2
SLP263 T10561083





000
SAUS43 KAPX 192055
MTRAPN
METAR KAPN 192054Z AUTO 01003KT 10SM CLR M02/M08 A3026 RMK AO2
SLP258 T10221078 53002





000
SAUS43 KAPX 191955
MTRAPN
METAR KAPN 191954Z AUTO 00000KT 10SM CLR M02/M07 A3025 RMK AO2
SLP257 T10171072





000
SAUS43 KAPX 191955
MTRAPN
METAR KAPN 191954Z AUTO 00000KT 10SM CLR M02/M07 A3025 RMK AO2
SLP257 T10171072





000
SAUS43 KAPX 191855
MTRAPN
METAR KAPN 191854Z AUTO 36006KT 10SM FEW021 M02/M07 A3025 RMK AO2
SLP255 T10171072





000
SAUS43 KAPX 191755
MTRAPN
METAR KAPN 191754Z AUTO 35005KT 10SM SCT016 M03/M07 A3025 RMK AO2
SLP257 I6000 T10281072 11028 21106 58012





000
SAUS43 KAPX 191736
MTRAPN
SPECI KAPN 191735Z AUTO 34006KT 10SM BKN015 M03/M07 A3026 RMK AO2
T10281072





000
SAUS43 KAPX 191655
MTRAPN
METAR KAPN 191654Z AUTO 35005KT 10SM BKN012 M04/M07 A3027 RMK AO2
SLP263 T10441072





000
SAUS43 KAPX 191631
MTRAPN
SPECI KAPN 191630Z AUTO 31003KT 10SM BKN013 M04/M07 A3028 RMK AO2
T10391067





000
SAUS43 KAPX 191604
MTRAPN
SPECI KAPN 191603Z AUTO 31006KT 10SM FEW016 M04/M07 A3028 RMK AO2
T10441072





000
SAUS43 KAPX 191604
MTRAPN
SPECI KAPN 191603Z AUTO 31006KT 10SM FEW016 M04/M07 A3028 RMK AO2
T10441072





000
SAUS43 KAPX 191555
MTRAPN
METAR KAPN 191554Z AUTO 32007KT 10SM BKN016 M04/M07 A3029 RMK AO2
SLP270 T10441072





000
SAUS43 KAPX 191553
MTRAPN
SPECI KAPN 191552Z AUTO 31005KT 10SM BKN016 M04/M07 A3029 RMK AO2





000
SAUS43 KAPX 191455
MTRAPN
METAR KAPN 191454Z AUTO 00000KT 10SM OVC014 M07/M08 A3028 RMK AO2
SLP269 I3000 T10671083 53005





000
SAUS43 KAPX 191446
MTRAPN
SPECI KAPN 191445Z AUTO 00000KT 10SM OVC014 M07/M09 A3028 RMK AO2
T10721089





000
SAUS43 KAPX 191355
MTRAPN
METAR KAPN 191354Z AUTO 28006KT 10SM OVC015 M09/M11 A3028 RMK AO2
SLP269 T10891106





000
SAUS43 KAPX 191255
MTRAPN
METAR KAPN 191254Z AUTO 27003KT 10SM BKN016 M10/M12 A3027 RMK AO2
SLP265 I1000 T11001117





000
SAUS43 KAPX 191251
MTRAPN
SPECI KAPN 191249Z AUTO 00000KT 10SM BKN016 M11/M12 A3027 RMK AO2
I1000





000
SAUS43 KAPX 191156
MTRAPN
METAR KAPN 191154Z AUTO 23003KT 10SM CLR M10/M12 A3025 RMK AO2
SLP259 I1000 I6000 T11001117 11094 21111 53009





000
SAUS43 KAPX 191130
MTRAPN
SPECI KAPN 191129Z AUTO 00000KT 10SM SCT014 M10/M12 A3024 RMK AO2
T11001117





000
SAUS43 KAPX 191056
MTRAPN
METAR KAPN 191054Z AUTO 00000KT 10SM BKN016 M10/M12 A3024 RMK AO2
SLP254 I1000 T11001117





000
SAUS43 KAPX 191047
MTRAPN
SPECI KAPN 191046Z AUTO 00000KT 10SM BKN016 M10/M12 A3024 RMK AO2
I1000 T11001117





000
SAUS43 KAPX 190955
MTRAPN
METAR KAPN 190954Z AUTO 00000KT 10SM CLR M10/M12 A3023 RMK AO2
SLP249 I1000 T11001122





000
SAUS43 KAPX 190955
MTRAPN
METAR KAPN 190954Z AUTO 00000KT 10SM CLR M10/M12 A3023 RMK AO2
SLP249 I1000 T11001122





000
SAUS43 KAPX 190855
MTRAPN
METAR KAPN 190854Z AUTO 00000KT 10SM CLR M11/M12 A3023 RMK AO2
SLP249 I1000 I3000 T11061117 50002





000
SAUS43 KAPX 190755
MTRAPN
METAR KAPN 190754Z AUTO 00000KT 10SM CLR M10/M12 A3023 RMK AO2
SLP250 T11001117





000
SAUS43 KAPX 190655
MTRAPN
METAR KAPN 190654Z AUTO VRB03KT 10SM CLR M09/M11 A3022 RMK AO2
SLP246 T10941111





000
SAUS43 KAPX 190555
MTRAPN
METAR KAPN 190554Z AUTO 28003KT 10SM CLR M09/M11 A3022 RMK AO2
SLP247 T10941111 11072 21094 51004





000
SAUS43 KAPX 190455
MTRAPN
METAR KAPN 190454Z AUTO 00000KT 10SM CLR M09/M11 A3022 RMK AO2
SLP246 T10941111 410331094





000
SAUS43 KAPX 190355
MTRAPN
METAR KAPN 190354Z AUTO 00000KT 10SM CLR M09/M11 A3021 RMK AO2
SLP245 T10891111





000
SAUS43 KAPX 190355
MTRAPN
METAR KAPN 190354Z AUTO 00000KT 10SM CLR M09/M11 A3021 RMK AO2
SLP245 T10891111





000
SAUS43 KAPX 190255
MTRAPN
METAR KAPN 190254Z AUTO 27004KT 10SM CLR M09/M11 A3021 RMK AO2
SLP243 T10891106 55003





000
SAUS43 KAPX 190155
MTRAPN
METAR KAPN 190154Z AUTO 28005KT 10SM CLR M08/M10 A3021 RMK AO2
SLP242 T10831100





000
SAUS43 KAPX 190155
MTRAPN
METAR KAPN 190154Z AUTO 28005KT 10SM CLR M08/M10 A3021 RMK AO2
SLP242 T10831100





000
SAUS43 KAPX 190055
MTRAPN
METAR KAPN 190054Z AUTO 28003KT 10SM CLR M08/M09 A3021 RMK AO2
SLP243 T10781094





000
SAUS43 KAPX 182355
MTRAPN
METAR KAPN 182354Z AUTO 30004KT 10SM CLR M07/M09 A3022 RMK AO2
SLP245 T10721089 11044 21072 51008





000
SAUS43 KAPX 182255
MTRAPN
METAR KAPN 182254Z AUTO 29004KT 10SM CLR M06/M08 A3021 RMK AO2
SLP244 T10611083





000
SAUS43 KAPX 182227
MTRAPN
SPECI KAPN 182226Z AUTO 30004KT 10SM SCT021 M06/M08 A3021 RMK AO2
T10561078





000
SAUS43 KAPX 182155
MTRAPN
METAR KAPN 182154Z AUTO 32006KT 10SM BKN018 M04/M08 A3020 RMK AO2
SLP239 T10441078





000
SAUS43 KAPX 182055
MTRAPN
METAR KAPN 182054Z AUTO 34007KT 10SM OVC016 M04/M08 A3019 RMK AO2
SLP236 T10441078 53001





000
SAUS43 KAPX 182006
MTRAPN
SPECI KAPN 182005Z AUTO 35008KT 10SM OVC015 M04/M07 A3018 RMK AO2
T10441072





000
SAUS43 KAPX 181955
MTRAPN
METAR KAPN 181954Z AUTO 34007KT 10SM OVC014 M04/M07 A3018 RMK AO2
SLP232 T10441072





000
SAUS43 KAPX 181855
MTRAPN
METAR KAPN 181854Z AUTO 33008KT 10SM OVC013 M04/M07 A3019 RMK AO2
SLP234 T10441072





000
SAUS43 KAPX 181755
MTRAPN
METAR KAPN 181754Z AUTO 34009KT 10SM OVC013 M04/M07 A3019 RMK AO2
SLP235 T10441072 11044 21050 58004





000
SAUS43 KAPX 181655
MTRAPN
METAR KAPN 181654Z AUTO 36009KT 10SM OVC014 M04/M08 A3020 RMK AO2
SLP239 T10441078





000
SAUS43 KAPX 181555
MTRAPN
METAR KAPN 181554Z AUTO 36009KT 10SM OVC014 M05/M08 A3021 RMK AO2
SLP242 T10501078





000
SAUS43 KAPX 181455
MTRAPN
METAR KAPN 181454Z AUTO 35011KT 10SM OVC014 M05/M08 A3020 RMK AO2
SLP239 T10501078 53003





000
SAUS43 KAPX 181355
MTRAPN
METAR KAPN 181354Z AUTO 36013KT 10SM OVC011 M05/M07 A3019 RMK AO2
SLP236 T10501072





000
SAUS43 KAPX 181355
MTRAPN
METAR KAPN 181354Z AUTO 36013KT 10SM OVC011 M05/M07 A3019 RMK AO2
SLP236 T10501072





000
SAUS43 KAPX 181255
MTRAPN
METAR KAPN 181254Z AUTO 34009KT 10SM OVC011 M04/M07 A3018 RMK AO2
SLP232 T10441067





000
SAUS43 KAPX 181255
MTRAPN
METAR KAPN 181254Z AUTO 34009KT 10SM OVC011 M04/M07 A3018 RMK AO2
SLP232 T10441067





000
SAUS43 KAPX 181155
MTRAPN
METAR KAPN 181154Z AUTO 31005KT 10SM OVC012 M04/M07 A3019 RMK AO2
SLP236 70009 T10441067 11039 21044 51011





000
SAUS43 KAPX 181055
MTRAPN
METAR KAPN 181054Z AUTO 32012KT 10SM OVC013 M04/M07 A3019 RMK AO2
SLP234 T10441072





000
SAUS43 KAPX 181055
MTRAPN
METAR KAPN 181054Z AUTO 32012KT 10SM OVC013 M04/M07 A3019 RMK AO2
SLP234 T10441072





000
SAUS43 KAPX 180955
MTRAPN
METAR KAPN 180954Z AUTO 31008KT 10SM OVC013 M04/M07 A3018 RMK AO2
SLP231 T10441067





000
SAUS43 KAPX 180915
MTRAPN
SPECI KAPN 180914Z AUTO 33006KT 10SM OVC014 M04/M06 A3016 RMK AO2
T10391061





000
SAUS43 KAPX 180915
MTRAPN
SPECI KAPN 180914Z AUTO 33006KT 10SM OVC014 M04/M06 A3016 RMK AO2
T10391061





000
SAUS43 KAPX 180855
MTRAPN
METAR KAPN 180854Z AUTO 32007KT 10SM OVC015 M04/M07 A3016 RMK AO2
SLP224 T10391067 51020





000
SAUS43 KAPX 180855
MTRAPN
METAR KAPN 180854Z AUTO 32007KT 10SM OVC015 M04/M07 A3016 RMK AO2
SLP224 T10391067 51020





000
SAUS43 KAPX 180801
MTRAPN
SPECI KAPN 180801Z AUTO 31005KT 10SM OVC015 M04/M07 A3015 RMK AO2
T10391067





000
SAUS43 KAPX 180801
MTRAPN
SPECI KAPN 180801Z AUTO 31005KT 10SM OVC015 M04/M07 A3015 RMK AO2
T10391067





000
SAUS43 KAPX 180755
MTRAPN
METAR KAPN 180754Z AUTO 32006KT 10SM OVC014 M04/M07 A3015 RMK AO2
SLP219 T10391067





000
SAUS43 KAPX 180755
MTRAPN
METAR KAPN 180754Z AUTO 32006KT 10SM OVC014 M04/M07 A3015 RMK AO2
SLP219 T10391067





000
SAUS43 KAPX 180655
MTRAPN
METAR KAPN 180654Z AUTO 33012KT 10SM OVC014 M04/M07 A3012 RMK AO2
SLP209 T10391067





000
SAUS43 KAPX 180641
MTRAPN
SPECI KAPN 180640Z AUTO 34009KT 10SM OVC014 M04/M07 A3011 RMK AO2
T10391067





000
SAUS43 KAPX 180630
MTRAPN
SPECI KAPN 180628Z AUTO 33009KT 10SM OVC015 M04/M06 A3011 RMK AO2
T10391061





000
SAUS43 KAPX 180555
MTRAPN
METAR KAPN 180554Z AUTO 33009KT 10SM OVC013 M04/M06 A3010 RMK AO2
SLP203 60001 T10391061 11033 21039 51014





000
SAUS43 KAPX 180456
MTRAPN
METAR KAPN 180454Z AUTO 34008KT 10SM OVC014 M04/M06 A3010 RMK AO2
SLP202 T10391061 400221039





000
SAUS43 KAPX 180439
MTRAPN
SPECI KAPN 180438Z AUTO 33008KT 10SM OVC014 M04/M06 A3009 RMK AO2
T10391061





000
SAUS43 KAPX 180409
MTRAPN
SPECI KAPN 180408Z AUTO 33011G18KT 10SM OVC015 M03/M06 A3008 RMK AO2
T10331061





000
SAUS43 KAPX 180356
MTRAPN
METAR KAPN 180354Z AUTO 33013KT 10SM OVC013 M03/M06 A3008 RMK AO2
SLP196 T10331061





000
SAUS43 KAPX 180356
MTRAPN
METAR KAPN 180354Z AUTO 33013KT 10SM OVC013 M03/M06 A3008 RMK AO2
SLP196 T10331061





000
SAUS43 KAPX 180309
MTRAPN
SPECI KAPN 180308Z AUTO 31006KT 10SM BKN013 OVC017 M03/M06 A3007 RMK
AO2 T10331056





000
SAUS43 KAPX 180255
MTRAPN
METAR KAPN 180254Z AUTO 30008KT 10SM OVC017 M03/M05 A3006 RMK AO2
SLP190 60001 T10331050 51009





000
SAUS43 KAPX 180234
MTRAPN
SPECI KAPN 180233Z AUTO 31009KT 10SM SCT012 OVC021 M03/M06 A3005 RMK
AO2 T10331056





000
SAUS43 KAPX 180155
MTRAPN
METAR KAPN 180154Z AUTO 31008KT 10SM BKN013 OVC021 M03/M05 A3005 RMK
AO2 SLP186 T10331050





000
SAUS43 KAPX 180155
MTRAPN
METAR KAPN 180154Z AUTO 31008KT 10SM BKN013 OVC021 M03/M05 A3005 RMK
AO2 SLP186 T10331050





000
SAUS43 KAPX 180152
MTRAPN
SPECI KAPN 180151Z AUTO 31007KT 10SM BKN013 OVC021 M03/M05 A3005 RMK
AO2





000
SAUS43 KAPX 180152
MTRAPN
SPECI KAPN 180151Z AUTO 31007KT 10SM BKN013 OVC021 M03/M05 A3005 RMK
AO2





000
SAUS43 KAPX 180128
MTRAPN
SPECI KAPN 180127Z AUTO 32008KT 10SM SCT012 OVC021 M03/M05 A3004 RMK
AO2 T10331050





000
SAUS43 KAPX 180055
MTRAPN
METAR KAPN 180054Z AUTO 32008KT 9SM FEW010 BKN014 OVC025 M03/M05
A3003 RMK AO2 SNE53 SLP180 P0001 T10331050





000
SAUS43 KAPX 180014
MTRAPN
SPECI KAPN 180013Z AUTO 32009KT 6SM -SN BR OVC014 M03/M05 A3002 RMK
AO2 P0000 T10331050





000
SAUS43 KAPX 180002
MTRAPN
SPECI KAPN 180001Z AUTO 31008KT 6SM -SN BR BKN015 OVC055 M03/M05
A3002 RMK AO2 P0000 T10331050





000
SAUS43 KAPX 172355
MTRAPN
METAR KAPN 172354Z AUTO 31009KT 5SM -SN BR BKN013 BKN055 M03/M05
A3002 RMK AO2 SLP174 P0000 60004 T10331050 11011 21033 53020





000
SAUS43 KAPX 172341
MTRAPN
SPECI KAPN 172340Z AUTO 31008KT 4SM -SN BR SCT010 OVC055 M03/M05
A3001 RMK AO2 P0000 T10331050





000
SAUS43 KAPX 172304
MTRAPN
SPECI KAPN 172302Z AUTO 30005KT 3SM -SN BR OVC012 M03/M04 A2999 RMK
AO2 P0000 T10281044





000
SAUS43 KAPX 172255
MTRAPN
METAR KAPN 172254Z AUTO 30006KT 2 1/2SM -SN BR BKN014 OVC019 M03/M04
A2999 RMK AO2 SLP165 P0002 T10281044





000
SAUS43 KAPX 172253
MTRAPN
SPECI KAPN 172252Z AUTO VRB05KT 2SM -SN BR BKN014 OVC019 M03/M04
A2999 RMK AO2 P0002





000
SAUS43 KAPX 172236
MTRAPN
SPECI KAPN 172235Z AUTO 31006KT 1 3/4SM -SN BR SCT018 OVC023 M03/M04
A2999 RMK AO2 P0001 T10281044





000
SAUS43 KAPX 172216
MTRAPN
SPECI KAPN 172215Z AUTO 30008KT 2SM -SN BR FEW012 BKN020 OVC025
M03/M04 A2998 RMK AO2 P0000 T10281044





000
SAUS43 KAPX 172206
MTRAPN
SPECI KAPN 172205Z AUTO 30007KT 4SM -SN BR SCT012 BKN020 OVC060
M03/M04 A2998 RMK AO2 P0000 T10281044





000
SAUS43 KAPX 172155
MTRAPN
METAR KAPN 172154Z AUTO VRB05KT 6SM -SN BR SCT012 OVC060 M02/M04
A2997 RMK AO2 SNE26B34 SLP159 P0000 T10221044





000
SAUS43 KAPX 172155
MTRAPN
METAR KAPN 172154Z AUTO VRB05KT 6SM -SN BR SCT012 OVC060 M02/M04
A2997 RMK AO2 SNE26B34 SLP159 P0000 T10221044





000
SAUS43 KAPX 172134
MTRAPN
SPECI KAPN 172133Z AUTO 30006G15KT 7SM FEW013 SCT017 OVC060 M02/M04
A2996 RMK AO2 SNE26 P0000 T10221044





000
SAUS43 KAPX 172119
MTRAPN
SPECI KAPN 172118Z AUTO 31006KT 3SM -SN BR BKN013 BKN030 OVC050
M02/M04 A2996 RMK AO2 P0000 T10221039





000
SAUS43 KAPX 172101
MTRAPN
SPECI KAPN 172101Z AUTO 32010KT 1 3/4SM -SN BR BKN013 BKN038 OVC049
M02/M04 A2996 RMK AO2 P0000 T10221039





000
SAUS43 KAPX 172055
MTRAPN
METAR KAPN 172054Z AUTO 32007KT 2 1/2SM -SN BR SCT013 BKN024 OVC049
M02/M04 A2996 RMK AO2 SLP153 P0000 60002 T10221039 53009





000
SAUS43 KAPX 172052
MTRAPN
SPECI KAPN 172051Z AUTO 30006KT 2 1/2SM -SN BR FEW013 BKN039 OVC049
M02/M04 A2995 RMK AO2 P0000





000
SAUS43 KAPX 171956
MTRAPN
METAR KAPN 171954Z AUTO 32010KT 8SM -SN SCT015 BKN022 OVC028 M02/M03
A2994 RMK AO2 UPB26E32SNE26B33 SLP146 P0001 T10171033





000
SAUS43 KAPX 171937
MTRAPN
SPECI KAPN 171936Z AUTO 31009KT 8SM -SN FEW011 BKN017 OVC029 M01/M03
A2993 RMK AO2 UPB26E32SNE26B33 P0001 T10111033





000
SAUS43 KAPX 171924
MTRAPN
SPECI KAPN 171923Z AUTO 31007KT 7SM -SN BKN010 OVC017 M01/M03 A2993
RMK AO2 P0001 T10111033





000
SAUS43 KAPX 171916
MTRAPN
SPECI KAPN 171915Z AUTO 31006KT 2SM -SN BR BKN010 OVC019 M01/M03
A2993 RMK AO2 P0001 T10111028





000
SAUS43 KAPX 171903
MTRAPN
SPECI KAPN 171902Z AUTO 30008KT 1 1/2SM -SN BR FEW010 BKN015 OVC047
M01/M03 A2993 RMK AO2 P0000 T10111028





000
SAUS43 KAPX 171901
MTRAPN
SPECI KAPN 171900Z AUTO 31009KT 2 1/2SM -SN BR FEW010 BKN015 OVC047
M01/M03 A2993 RMK AO2 P0000 T10111028





000
SAUS43 KAPX 171855
MTRAPN
METAR KAPN 171854Z AUTO 31006KT 5SM -SN BR SCT014 BKN032 OVC048
M01/M03 A2993 RMK AO2 SLP143 P0001 T10111028





000
SAUS43 KAPX 171840
MTRAPN
SPECI KAPN 171839Z AUTO 31007KT 5SM -SN BR SCT012 BKN038 OVC050
M01/M03 A2993 RMK AO2 VIS 2 1/2 RY 19 P0001 T10111028





000
SAUS43 KAPX 171828
MTRAPN
SPECI KAPN 171827Z AUTO 29007G14KT 250V310 3SM -SN BR SCT010 BKN020
OVC050 M01/M03 A2993 RMK AO2 VIS 2 RY 19 P0001 T10111028





000
SAUS43 KAPX 171825
MTRAPN
SPECI KAPN 171824Z AUTO 29008G14KT 2SM -SN BR BKN010 BKN020 OVC050
M01/M02 A2993 RMK AO2 P0001 T10111022





000
SAUS43 KAPX 171808
MTRAPN
SPECI KAPN 171807Z AUTO 30006KT 1SM -SN BR FEW009 BKN020 OVC028
M01/M03 A2993 RMK AO2 P0001 T10111028





000
SAUS43 KAPX 171803
MTRAPN
SPECI KAPN 171802Z AUTO 30006KT 1 3/4SM -SN BR BKN011 BKN020 OVC030
M01/M03 A2993 RMK AO2 P0001 T10111028





000
SAUS43 KAPX 171800
MTRAPN
SPECI KAPN 171759Z AUTO 31007KT 2SM -SN BR FEW009 BKN015 OVC027
M01/M03 A2993 RMK AO2 P0000 T10111028





000
SAUS43 KAPX 171757
MTRAPN
SPECI KAPN 171756Z AUTO 31007KT 2SM -SN BR BKN014 BKN024 OVC031
M01/M03 A2993 RMK AO2 P0000 T10111028





000
SAUS43 KAPX 171755
MTRAPN
METAR KAPN 171754Z AUTO 30006G15KT 1 3/4SM -SN BR SCT016 BKN025
OVC050 M01/M03 A2993 RMK AO2 UPB38E40SNE18B40 SLP142 P0000 60004
T10111028 10006 21011 56002





000
SAUS43 KAPX 171749
MTRAPN
SPECI KAPN 171748Z AUTO 31009G16KT 1 3/4SM -SN BR SCT018 BKN030
OVC065 M01/M03 A2993 RMK AO2 UPB38E40SNE18B40 P0000





000
SAUS43 KAPX 171717
MTRAPN
SPECI KAPN 171715Z AUTO 29006G17KT 6SM -SN BR FEW010 BKN048 OVC070
M01/M03 A2993 RMK AO2 VIS 2 1/2 RY 19 P0000 T10111028





000
SAUS43 KAPX 171705
MTRAPN
SPECI KAPN 171704Z AUTO 29012G19KT 2SM -SN BR SCT009 BKN016 OVC023
M01/M03 A2993 RMK AO2 P0000 T10111028





000
SAUS43 KAPX 171701
MTRAPN
SPECI KAPN 171701Z AUTO 29010G17KT 1 3/4SM -SN BR BKN009 OVC014
M01/M02 A2993 RMK AO2 P0000 T10061022





000
SAUS43 KAPX 171655
MTRAPN
METAR KAPN 171654Z AUTO 30008KT 3/4SM -SN BR SCT009 OVC014 M01/M02
A2993 RMK AO2 SLP143 P0001 T10061017





000
SAUS43 KAPX 171654
MTRAPN
SPECI KAPN 171652Z AUTO 29008G15KT 3/4SM -SN BR SCT009 OVC014
M01/M02 A2993 RMK AO2 P0001





000
SAUS43 KAPX 171642
MTRAPN
SPECI KAPN 171641Z AUTO 28007KT 1 1/4SM -SN BR BKN009 BKN013 OVC024
M01/M02 A2993 RMK AO2 P0001 T10061017





000
SAUS43 KAPX 171635
MTRAPN
SPECI KAPN 171634Z AUTO 28007KT 2SM -SN BR BKN009 BKN014 OVC037
M01/M02 A2993 RMK AO2 P0000 T10061017





000
SAUS43 KAPX 171629
MTRAPN
SPECI KAPN 171628Z AUTO 27008KT 3SM -SN BR SCT009 BKN014 OVC065
M01/M02 A2993 RMK AO2 VIS 2 RY 19 P0000 T10061017





000
SAUS43 KAPX 171627
MTRAPN
SPECI KAPN 171626Z AUTO 28008KT 2SM -SN BR BKN011 BKN043 OVC060
M01/M02 A2993 RMK AO2 P0000 T10061017





000
SAUS43 KAPX 171625
MTRAPN
SPECI KAPN 171623Z AUTO 29006KT 1 1/4SM -SN BR SCT009 BKN040 OVC060
M01/M02 A2993 RMK AO2 P0000 T10061017





000
SAUS43 KAPX 171625
MTRAPN
SPECI KAPN 171623Z AUTO 29006KT 1 1/4SM -SN BR SCT009 BKN040 OVC060
M01/M02 A2993 RMK AO2 P0000 T10061017





000
SAUS43 KAPX 171616
MTRAPN
SPECI KAPN 171615Z AUTO 29006KT 2 1/2SM -SN BR SCT009 BKN041 OVC070
M01/M02 A2993 RMK AO2 P0000 T10061017





000
SAUS43 KAPX 171604
MTRAPN
SPECI KAPN 171603Z AUTO 28007KT 240V300 5SM -SN BR FEW011 BKN032
OVC070 M01/M02 A2993 RMK AO2 P0000 T10061017





000
SAUS43 KAPX 171555
MTRAPN
METAR KAPN 171554Z AUTO 29010KT 2 1/2SM -SN BR FEW009 OVC030 M01/M02
A2993 RMK AO2 SLP144 P0001 T10111022





000
SAUS43 KAPX 171543
MTRAPN
SPECI KAPN 171542Z AUTO 28008KT 250V310 2 1/2SM -SN BR FEW009 SCT013
OVC026 M01/M02 A2993 RMK AO2 VIS 3/4 RY 19 P0001 T10111022





000
SAUS43 KAPX 171540
MTRAPN
SPECI KAPN 171538Z AUTO 29008KT 1 3/4SM -SN BR SCT009 BKN013 OVC029
M01/M02 A2993 RMK AO2 VIS 1 RY 19 P0001 T10111022





000
SAUS43 KAPX 171521
MTRAPN
SPECI KAPN 171520Z AUTO 29007KT 1 1/4SM -SN BR BKN009 BKN012 OVC037
M01/M02 A2993 RMK AO2 P0001 T10061017





000
SAUS43 KAPX 171507
MTRAPN
SPECI KAPN 171506Z AUTO 30007KT 2 1/2SM -SN BR BKN009 BKN029 OVC039
M01/M02 A2992 RMK AO2 P0001 T10061017





000
SAUS43 KAPX 171500
MTRAPN
SPECI KAPN 171458Z AUTO 30007G16KT 2SM -SN BR FEW007 BKN011 OVC037
M01/M02 A2992 RMK AO2 P0001 T10061017





000
SAUS43 KAPX 171455
MTRAPN
METAR KAPN 171454Z AUTO 30007G16KT 1 1/4SM -SN BR BKN009 BKN025
OVC030 M01/M02 A2992 RMK AO2 SLP139 P0002 60002 T10061017 51012





000
SAUS43 KAPX 171452
MTRAPN
SPECI KAPN 171451Z AUTO 30009G16KT 1SM -SN BR BKN009 BKN017 OVC028
M01/M02 A2992 RMK AO2 P0002





000
SAUS43 KAPX 171445
MTRAPN
SPECI KAPN 171444Z AUTO 30005KT 1 3/4SM -SN BR SCT007 BKN011 OVC017
M01/M01 A2991 RMK AO2 P0002 T10061011





000
SAUS43 KAPX 171443
MTRAPN
SPECI KAPN 171442Z AUTO 30005KT 2SM -SN BR BKN009 OVC017 M01/M01
A2991 RMK AO2 P0002 T10061011





000
SAUS43 KAPX 171436
MTRAPN
SPECI KAPN 171435Z AUTO 30009KT 3SM -SN BR SCT006 BKN013 OVC022
M01/M02 A2991 RMK AO2 P0002 T10061017





000
SAUS43 KAPX 171426
MTRAPN
SPECI KAPN 171425Z AUTO 31007KT 1SM -SN BR SCT006 BKN010 OVC017
M01/M01 A2991 RMK AO2 P0002 T10061011





000
SAUS43 KAPX 171409
MTRAPN
SPECI KAPN 171408Z AUTO 31009KT 3/4SM -SN BR BKN008 OVC015 M01/M01
A2990 RMK AO2 P0001 T10061011





000
SAUS43 KAPX 171357
MTRAPN
SPECI KAPN 171356Z AUTO 31006KT 3/4SM -SN BR FEW006 BKN012 OVC028
00/M01 A2990 RMK AO2 P0000 T00001011





000
SAUS43 KAPX 171355
MTRAPN
METAR KAPN 171354Z AUTO 31006KT 1SM -SN BR SCT006 BKN015 OVC028
00/M01 A2990 RMK AO2 SLP133 P0000 T00001011





000
SAUS43 KAPX 171344
MTRAPN
SPECI KAPN 171343Z AUTO 32009KT 1 3/4SM -SN BR FEW009 BKN016 OVC037
00/M01 A2990 RMK AO2 P0000 T00001011





000
SAUS43 KAPX 171332
MTRAPN
SPECI KAPN 171331Z AUTO 31007KT 4SM -SN BR SCT009 BKN016 OVC035
00/M01 A2989 RMK AO2 VIS 1 3/4 RY 19 P0000 T00001006





000
SAUS43 KAPX 171318
MTRAPN
SPECI KAPN 171317Z AUTO 32006KT 3SM -SN BR SCT007 BKN012 OVC019
00/M01 A2989 RMK AO2 P0000 T00001006





000
SAUS43 KAPX 171311
MTRAPN
SPECI KAPN 171310Z AUTO 32007KT 2SM -SN BR FEW007 BKN020 OVC047
00/M01 A2989 RMK AO2 P0000 T00001006





000
SAUS43 KAPX 171306 COR
MTRAPN
SPECI KAPN 171303Z AUTO 32008KT 3SM -SN BR FEW009 BKN020 OVC047
00/M01 A2988 RMK AO2 VIS 1 3/4 RY 19 P0000 T00001006





000
SAUS43 KAPX 171255
MTRAPN
METAR KAPN 171254Z AUTO 32006KT 8SM -SN FEW033 BKN047 OVC060 00/M01
A2988 RMK AO2 SNB09E18B53 SLP127 P0000 T00001006





    US Dept of Commerce
    National Oceanic and Atmospheric Administration
    National Weather Service
    1325 East West Highway
    Silver Spring, MD 20910
    Page Author: NWS Internet Services Team
Disclaimer
Information Quality
Credits
Glossary
Privacy Policy
Freedom of Information Act (FOIA)
About Us
Career Opportunities